createdAt,value
2023-02-02T00:00:57.330Z,41.10
2023-02-02T00:03:22.270Z,41.25
2023-02-02T00:05:47.804Z,40.10
2023-02-02T00:08:12.148Z,42.20
2023-02-02T00:10:36.636Z,38.58
2023-02-02T00:13:01.251Z,38.92
2023-02-02T00:15:26.005Z,38.00
2023-02-02T00:17:51.964Z,37.03
2023-02-02T00:20:16.702Z,35.28
2023-02-02T00:22:41.082Z,33.65
2023-02-02T00:25:05.939Z,33.00
2023-02-02T00:27:30.294Z,31.70
2023-02-02T00:29:54.907Z,36.92
2023-02-02T00:32:19.713Z,36.92
2023-02-02T00:34:45.508Z,31.92
2023-02-02T00:37:09.860Z,27.35
2023-02-02T00:39:34.445Z,30.33
2023-02-02T00:41:58.783Z,30.40
2023-02-02T00:44:40.898Z,34.67
2023-02-02T00:47:05.799Z,26.65
2023-02-02T00:49:30.277Z,29.63
2023-02-02T00:51:56.221Z,31.23
2023-02-02T00:54:20.852Z,29.83
2023-02-02T00:56:45.360Z,30.00
2023-02-02T00:59:10.166Z,28.83
2023-02-02T01:01:34.875Z,26.52
2023-02-02T01:03:59.983Z,29.88
2023-02-02T01:06:24.388Z,25.95
2023-02-02T01:08:50.297Z,27.65
2023-02-02T01:11:14.704Z,28.05
2023-02-02T01:13:39.129Z,26.20
2023-02-02T01:16:04.945Z,26.83
2023-02-02T01:18:30.375Z,29.40
2023-02-02T01:20:59.032Z,29.65
2023-02-02T01:23:24.272Z,32.33
2023-02-02T01:25:55.000Z,29.70
2023-02-02T01:28:19.401Z,27.85
2023-02-02T01:30:44.798Z,28.60
2023-02-02T01:33:09.189Z,31.42
2023-02-02T01:35:33.616Z,27.50
2023-02-02T01:37:58.163Z,32.08
2023-02-02T01:40:23.144Z,26.42
2023-02-02T01:42:49.436Z,25.77
2023-02-02T01:45:25.820Z,31.17
2023-02-02T01:47:54.116Z,31.58
2023-02-02T01:50:19.410Z,26.52
2023-02-02T01:52:46.726Z,30.30
2023-02-02T01:55:14.045Z,25.25
2023-02-02T01:57:41.424Z,21.88
2023-02-02T02:00:11.341Z,24.55
2023-02-02T02:02:40.966Z,23.45
2023-02-02T02:05:07.839Z,22.73
2023-02-02T02:07:32.533Z,19.63
2023-02-02T02:09:57.131Z,23.63
2023-02-02T02:12:21.537Z,19.83
2023-02-02T02:15:05.973Z,20.38
2023-02-02T02:17:50.501Z,20.58
2023-02-02T02:20:58.794Z,17.10
2023-02-02T02:24:20.952Z,17.08
2023-02-02T02:26:59.124Z,19.63
2023-02-02T02:29:51.775Z,18.63
2023-02-02T02:32:38.937Z,15.52
2023-02-02T02:35:10.910Z,15.88
2023-02-02T02:37:44.145Z,18.15
2023-02-02T02:40:16.379Z,14.23
2023-02-02T02:42:45.681Z,15.70
2023-02-02T02:45:13.263Z,15.50
2023-02-02T02:47:39.783Z,19.05
2023-02-02T02:50:04.421Z,20.25
2023-02-02T02:52:28.805Z,16.98
2023-02-02T02:54:56.262Z,13.57
2023-02-02T02:57:36.014Z,19.52
2023-02-02T03:00:11.177Z,16.83
2023-02-02T03:02:44.725Z,17.42
2023-02-02T03:05:19.044Z,15.55
2023-02-02T03:07:46.071Z,20.70
2023-02-02T03:10:12.782Z,20.33
2023-02-02T03:12:45.625Z,14.35
2023-02-02T03:15:10.457Z,16.88
2023-02-02T03:17:34.855Z,17.15
2023-02-02T03:20:00.817Z,17.10
2023-02-02T03:22:25.296Z,18.75
2023-02-02T03:24:49.857Z,17.50
2023-02-02T03:27:14.181Z,18.50
2023-02-02T03:29:38.913Z,18.73
2023-02-02T03:32:03.467Z,16.75
2023-02-02T03:34:28.201Z,15.52
2023-02-02T03:36:54.043Z,17.42
2023-02-02T03:39:18.409Z,16.63
2023-02-02T03:41:42.825Z,15.25
2023-02-02T03:44:07.366Z,18.88
2023-02-02T03:46:31.971Z,17.65
2023-02-02T03:48:56.274Z,17.63
2023-02-02T03:51:20.728Z,12.95
2023-02-02T03:53:47.637Z,13.02
2023-02-02T03:56:12.561Z,15.88
2023-02-02T03:58:37.173Z,12.43
2023-02-02T04:01:04.589Z,12.73
2023-02-02T04:03:28.973Z,16.25
2023-02-02T04:05:53.580Z,13.27
2023-02-02T04:08:17.920Z,13.30
2023-02-02T04:10:43.975Z,13.23
2023-02-02T04:13:08.287Z,12.23
2023-02-02T04:15:32.632Z,12.15
2023-02-02T04:17:57.061Z,11.88
2023-02-02T04:20:21.584Z,11.60
2023-02-02T04:22:46.014Z,13.88
2023-02-02T04:25:10.683Z,12.20
2023-02-02T04:27:36.545Z,12.00
2023-02-02T04:30:00.963Z,14.93
2023-02-02T04:32:25.341Z,13.30
2023-02-02T04:34:49.563Z,11.23
2023-02-02T04:37:14.103Z,11.50
2023-02-02T04:39:38.516Z,12.80
2023-02-02T04:42:03.028Z,10.77
2023-02-02T04:44:28.887Z,11.50
2023-02-02T04:46:53.250Z,14.27
2023-02-02T04:49:17.659Z,13.20
2023-02-02T04:51:42.926Z,12.52
2023-02-02T04:54:07.664Z,10.93
2023-02-02T04:56:32.144Z,14.73
2023-02-02T04:58:57.051Z,15.88
2023-02-02T05:01:23.451Z,13.90
2023-02-02T05:03:48.450Z,13.48
2023-02-02T05:06:15.973Z,14.95
2023-02-02T05:08:43.328Z,14.60
2023-02-02T05:11:09.083Z,14.95
2023-02-02T05:13:33.437Z,13.65
2023-02-02T05:15:57.982Z,15.95
2023-02-02T05:18:25.638Z,17.33
2023-02-02T05:20:50.176Z,12.93
2023-02-02T05:23:14.446Z,15.48
2023-02-02T05:25:38.935Z,19.25
2023-02-02T05:28:03.489Z,16.73
2023-02-02T05:30:27.841Z,22.10
2023-02-02T05:32:52.239Z,19.13
2023-02-02T05:35:18.820Z,16.90
2023-02-02T05:37:44.336Z,17.90
2023-02-02T05:40:10.105Z,34.50
2023-02-02T05:42:34.436Z,20.90
2023-02-02T05:44:58.842Z,19.02
2023-02-02T05:47:23.182Z,19.70
2023-02-02T05:49:47.871Z,22.48
2023-02-02T05:52:17.981Z,22.60
2023-02-02T05:54:42.332Z,20.77
2023-02-02T05:57:06.686Z,20.35
2023-02-02T05:59:31.192Z,23.02
2023-02-02T06:01:55.972Z,22.25
2023-02-02T06:04:20.419Z,21.48
2023-02-02T06:06:44.990Z,18.08
2023-02-02T06:09:12.185Z,21.60
2023-02-02T06:11:36.672Z,20.40
2023-02-02T06:14:01.023Z,18.55
2023-02-02T06:16:25.756Z,20.42
2023-02-02T06:18:50.128Z,21.02
2023-02-02T06:21:14.902Z,20.88
2023-02-02T06:23:45.720Z,19.30
2023-02-02T06:26:11.832Z,20.10
2023-02-02T06:28:36.247Z,21.00
2023-02-02T06:31:06.037Z,22.10
2023-02-02T06:33:30.418Z,22.13
2023-02-02T06:35:54.858Z,20.38
2023-02-02T06:38:19.635Z,20.35
2023-02-02T06:40:43.928Z,20.90
2023-02-02T06:43:15.118Z,23.95
2023-02-02T06:45:40.525Z,22.80
2023-02-02T06:48:11.028Z,20.95
2023-02-02T06:50:35.562Z,17.92
2023-02-02T06:52:59.945Z,22.02
2023-02-02T06:55:24.998Z,25.65
2023-02-02T06:57:49.756Z,24.77
2023-02-02T07:00:18.535Z,25.30
2023-02-02T07:02:47.341Z,21.58
2023-02-02T07:05:12.215Z,20.83
2023-02-02T07:07:36.866Z,27.73
2023-02-02T07:10:01.198Z,22.55
2023-02-02T07:12:28.063Z,25.88
2023-02-02T07:14:52.470Z,24.85
2023-02-02T07:17:18.244Z,30.73
2023-02-02T07:19:42.801Z,23.65
2023-02-02T07:22:07.303Z,22.40
2023-02-02T07:24:32.881Z,22.50
2023-02-02T07:26:58.209Z,19.75
2023-02-02T07:29:22.715Z,24.25
2023-02-02T07:31:47.189Z,24.38
2023-02-02T07:34:13.095Z,22.55
2023-02-02T07:36:38.476Z,20.05
2023-02-02T07:39:04.963Z,17.15
2023-02-02T07:41:29.667Z,19.02
2023-02-02T07:43:54.024Z,16.50
2023-02-02T07:46:19.927Z,19.40
2023-02-02T07:48:44.471Z,16.33
2023-02-02T07:51:13.038Z,15.15
2023-02-02T07:53:37.705Z,19.05
2023-02-02T07:56:10.758Z,17.92
2023-02-02T07:58:35.659Z,15.93
2023-02-02T08:01:02.778Z,17.85
2023-02-02T08:03:27.239Z,15.70
2023-02-02T08:05:51.784Z,15.63
2023-02-02T08:08:17.652Z,15.63
2023-02-02T08:10:48.336Z,13.27
2023-02-02T08:13:13.713Z,15.90
2023-02-02T08:15:38.174Z,18.58
2023-02-02T08:18:02.790Z,16.45
2023-02-02T08:20:27.468Z,11.93
2023-02-02T08:22:52.093Z,10.60
2023-02-02T08:25:18.072Z,16.90
2023-02-02T08:27:42.576Z,9.90
2023-02-02T08:30:07.792Z,13.23
2023-02-02T08:32:33.017Z,11.27
2023-02-02T08:34:57.549Z,13.10
2023-02-02T08:37:22.034Z,10.45
2023-02-02T08:39:46.444Z,13.23
2023-02-02T08:42:12.699Z,11.75
2023-02-02T08:45:01.322Z,10.95
2023-02-02T08:47:22.039Z,9.63
2023-02-02T08:49:46.714Z,13.95
2023-02-02T08:52:11.304Z,14.13
2023-02-02T08:54:35.798Z,17.92
2023-02-02T08:57:00.393Z,17.88
2023-02-02T08:59:26.654Z,16.48
2023-02-02T09:01:51.264Z,16.25
2023-02-02T09:04:17.702Z,16.05
2023-02-02T09:06:43.290Z,14.45
2023-02-02T09:09:11.017Z,13.63
2023-02-02T09:11:36.354Z,14.48
2023-02-02T09:14:02.391Z,13.13
2023-02-02T09:16:29.123Z,14.30
2023-02-02T09:18:54.261Z,13.40
2023-02-02T09:21:20.892Z,13.63
2023-02-02T09:23:46.597Z,11.45
2023-02-02T09:26:12.696Z,15.07
2023-02-02T09:28:39.222Z,17.35
2023-02-02T09:31:05.117Z,14.00
2023-02-02T09:33:31.432Z,12.73
2023-02-02T09:35:55.804Z,13.07
2023-02-02T09:38:20.359Z,13.77
2023-02-02T09:40:44.918Z,15.23
2023-02-02T09:43:28.341Z,12.15
2023-02-02T09:46:03.392Z,11.43
2023-02-02T09:48:38.832Z,12.43
2023-02-02T09:51:06.991Z,14.35
2023-02-02T09:53:54.616Z,11.75
2023-02-02T09:56:26.418Z,10.00
2023-02-02T09:58:54.665Z,10.15
2023-02-02T10:01:24.148Z,9.23
2023-02-02T10:04:03.146Z,11.10
2023-02-02T10:06:35.590Z,7.28
2023-02-02T10:09:08.034Z,9.32
2023-02-02T10:11:36.904Z,12.50
2023-02-02T10:14:07.077Z,8.88
2023-02-02T10:16:33.801Z,9.05
2023-02-02T10:19:04.198Z,10.60
2023-02-02T10:21:37.026Z,12.43
2023-02-02T10:24:03.479Z,10.85
2023-02-02T10:26:37.378Z,11.15
2023-02-02T10:29:10.661Z,10.00
2023-02-02T10:31:44.032Z,9.32
2023-02-02T10:34:19.035Z,10.32
2023-02-02T10:36:56.744Z,9.88
2023-02-02T10:39:29.522Z,9.48
2023-02-02T10:42:05.519Z,7.53
2023-02-02T10:44:38.113Z,9.73
2023-02-02T10:47:05.585Z,11.38
2023-02-02T10:49:35.347Z,13.55
2023-02-02T10:52:07.223Z,10.95
2023-02-02T10:54:55.934Z,9.77
2023-02-02T10:57:35.617Z,11.50
2023-02-02T11:00:09.627Z,14.10
2023-02-02T11:02:35.360Z,10.93
2023-02-02T11:05:18.852Z,14.60
2023-02-02T11:07:43.368Z,10.80
2023-02-02T11:10:08.408Z,11.20
2023-02-02T11:12:35.466Z,12.48
2023-02-02T11:15:05.317Z,12.63
2023-02-02T11:17:33.259Z,14.82
2023-02-02T11:19:57.687Z,13.40
2023-02-02T11:22:30.153Z,10.30
2023-02-02T11:24:55.683Z,12.35
2023-02-02T11:27:22.390Z,13.40
2023-02-02T11:29:49.303Z,11.68
2023-02-02T11:32:25.621Z,12.82
2023-02-02T11:34:50.847Z,12.95
2023-02-02T11:37:21.340Z,11.75
2023-02-02T11:39:47.208Z,17.00
2023-02-02T11:42:17.539Z,13.73
2023-02-02T11:44:44.517Z,16.33
2023-02-02T11:47:09.096Z,13.43
2023-02-02T11:49:40.192Z,13.32
2023-02-02T11:52:07.758Z,16.95
2023-02-02T11:54:34.524Z,12.88
2023-02-02T11:57:02.801Z,14.27
2023-02-02T11:59:31.103Z,19.02
2023-02-02T12:02:24.821Z,14.05
2023-02-02T12:04:50.741Z,13.43
2023-02-02T12:07:28.220Z,11.63
2023-02-02T12:09:54.658Z,12.93
2023-02-02T12:12:36.206Z,12.40
2023-02-02T12:15:10.962Z,13.02
2023-02-02T12:17:40.688Z,15.18
2023-02-02T12:20:16.056Z,14.63
2023-02-02T12:22:54.651Z,14.98
2023-02-02T12:25:49.958Z,17.90
2023-02-02T12:28:27.445Z,12.38
2023-02-02T12:30:59.871Z,11.98
2023-02-02T12:33:33.926Z,14.65
2023-02-02T12:36:18.562Z,13.77
2023-02-02T12:39:19.007Z,13.65
2023-02-02T12:42:02.659Z,12.05
2023-02-02T12:44:37.189Z,14.25
2023-02-02T12:47:18.959Z,11.85
2023-02-02T12:49:56.463Z,13.00
2023-02-02T12:52:35.470Z,18.38
2023-02-02T12:55:23.273Z,17.95
2023-02-02T12:57:57.996Z,12.10
2023-02-02T13:00:49.832Z,15.20
2023-02-02T13:03:26.295Z,10.15
2023-02-02T13:06:03.940Z,11.52
2023-02-02T13:08:34.952Z,11.93
2023-02-02T13:11:06.525Z,13.82
2023-02-02T13:13:38.567Z,10.95
2023-02-02T13:16:10.014Z,13.40
2023-02-02T13:18:40.347Z,12.85
2023-02-02T13:21:09.366Z,11.55
2023-02-02T13:23:37.704Z,14.30
2023-02-02T13:26:05.825Z,12.40
2023-02-02T13:28:38.225Z,10.75
2023-02-02T13:31:09.594Z,10.73
2023-02-02T13:33:38.644Z,14.05
2023-02-02T13:36:07.331Z,11.23
2023-02-02T13:38:34.391Z,9.23
2023-02-02T13:41:03.509Z,7.03
2023-02-02T13:43:40.295Z,11.40
2023-02-02T13:46:16.427Z,8.38
2023-02-02T13:48:52.020Z,9.70
2023-02-02T13:51:51.179Z,9.10
2023-02-02T13:54:53.682Z,9.65
2023-02-02T13:57:53.140Z,7.78
2023-02-02T14:00:19.893Z,8.70
2023-02-02T14:02:49.551Z,8.93
2023-02-02T14:05:26.118Z,8.40
2023-02-02T14:07:55.944Z,7.30
2023-02-02T14:10:40.556Z,7.00
2023-02-02T14:13:37.598Z,6.82
2023-02-02T14:16:06.795Z,5.90
2023-02-02T14:19:00.308Z,4.80
2023-02-02T14:21:58.262Z,6.15
2023-02-02T14:24:54.820Z,7.65
2023-02-02T14:27:42.962Z,6.18
2023-02-02T14:30:23.314Z,4.70
2023-02-02T14:32:48.168Z,4.65
2023-02-02T14:36:01.065Z,6.20
2023-02-02T14:38:52.970Z,6.20
2023-02-02T14:41:43.569Z,5.75
2023-02-02T14:44:07.325Z,6.93
2023-02-02T14:46:48.329Z,6.60
2023-02-02T14:49:27.793Z,8.30
2023-02-02T14:52:05.601Z,7.43
2023-02-02T14:54:44.037Z,6.60
2023-02-02T14:57:24.787Z,7.78
2023-02-02T14:59:49.762Z,9.85
2023-02-02T15:02:22.200Z,7.80
2023-02-02T15:04:48.014Z,9.05
2023-02-02T15:07:37.984Z,6.30
2023-02-02T15:12:41.203Z,8.73
2023-02-02T15:15:23.117Z,8.23
2023-02-02T15:18:01.081Z,8.13
2023-02-02T15:20:31.087Z,8.50
2023-02-02T15:23:00.952Z,8.52
2023-02-02T15:25:31.923Z,9.02
2023-02-02T15:28:00.421Z,8.90
2023-02-02T15:30:27.849Z,9.80
2023-02-02T15:33:04.051Z,9.82
2023-02-02T15:35:32.591Z,12.85
2023-02-02T15:38:01.954Z,13.25
2023-02-02T15:40:32.267Z,11.95
2023-02-02T15:43:01.675Z,10.10
2023-02-02T15:45:38.146Z,14.13
2023-02-02T15:48:06.673Z,11.52
2023-02-02T15:50:31.721Z,17.60
2023-02-02T15:52:57.187Z,13.70
2023-02-02T15:55:24.617Z,12.95
2023-02-02T15:57:54.275Z,11.90
2023-02-02T16:00:31.060Z,12.32
2023-02-02T16:03:01.883Z,14.15
2023-02-02T16:05:39.881Z,13.93
2023-02-02T16:08:08.182Z,13.52
2023-02-02T16:10:32.835Z,13.68
2023-02-02T16:12:58.951Z,11.68
2023-02-02T16:15:27.037Z,12.90
2023-02-02T16:18:00.886Z,12.50
2023-02-02T16:20:25.547Z,13.75
2023-02-02T16:22:51.263Z,13.05
2023-02-02T16:25:20.759Z,14.57
2023-02-02T16:27:49.710Z,13.20
2023-02-02T16:30:28.382Z,14.05
2023-02-02T16:32:53.154Z,13.65
2023-02-02T16:35:34.231Z,16.27
2023-02-02T16:38:13.770Z,15.52
2023-02-02T16:40:38.688Z,16.02
2023-02-02T16:43:07.100Z,13.27
2023-02-02T16:45:41.553Z,11.60
2023-02-02T16:48:28.153Z,13.27
2023-02-02T16:51:09.501Z,11.73
2023-02-02T16:53:34.131Z,12.65
2023-02-02T16:55:58.697Z,11.43
2023-02-02T16:58:25.293Z,12.73
2023-02-02T17:01:08.797Z,14.23
2023-02-02T17:03:43.481Z,10.90
2023-02-02T17:06:11.447Z,13.70
2023-02-02T17:08:38.716Z,14.95
2023-02-02T17:11:06.516Z,13.88
2023-02-02T17:13:41.087Z,15.63
2023-02-02T17:16:07.433Z,13.65
2023-02-02T17:18:31.849Z,14.18
2023-02-02T17:20:58.870Z,12.40
2023-02-02T17:23:23.707Z,14.93
2023-02-02T17:25:48.247Z,13.20
2023-02-02T17:28:15.479Z,17.92
2023-02-02T17:30:42.271Z,17.95
2023-02-02T17:33:14.825Z,13.95
2023-02-02T17:35:53.050Z,14.25
2023-02-02T17:38:18.543Z,14.37
2023-02-02T17:40:42.897Z,15.27
2023-02-02T17:43:10.997Z,13.23
2023-02-02T17:45:36.937Z,13.48
2023-02-02T17:48:04.055Z,10.90
2023-02-02T17:50:31.045Z,12.43
2023-02-02T17:52:56.060Z,12.30
2023-02-02T17:55:23.070Z,13.65
2023-02-02T17:57:47.625Z,16.48
2023-02-02T18:00:13.314Z,15.07
2023-02-02T18:02:38.006Z,17.70
2023-02-02T18:05:03.551Z,25.75
2023-02-02T18:07:29.423Z,16.90
2023-02-02T18:09:53.812Z,19.20
2023-02-02T18:12:18.370Z,21.98
2023-02-02T18:14:42.655Z,21.02
2023-02-02T18:17:08.312Z,21.13
2023-02-02T18:19:32.979Z,21.77
2023-02-02T18:21:57.377Z,23.17
2023-02-02T18:24:23.215Z,18.92
2023-02-02T18:26:47.633Z,22.70
2023-02-02T18:29:13.853Z,19.50
2023-02-02T18:31:40.013Z,20.17
2023-02-02T18:34:05.737Z,21.77
2023-02-02T18:36:30.299Z,21.33
2023-02-02T18:38:54.790Z,17.30
2023-02-02T18:41:22.221Z,18.38
2023-02-02T18:43:46.666Z,21.58
2023-02-02T18:46:14.677Z,18.95
2023-02-02T18:48:39.379Z,20.85
2023-02-02T18:51:06.706Z,21.63
2023-02-02T18:53:31.103Z,16.83
2023-02-02T18:55:55.514Z,14.55
2023-02-02T18:58:21.252Z,16.83
2023-02-02T19:00:46.662Z,18.65
2023-02-02T19:03:11.406Z,15.52
2023-02-02T19:05:53.277Z,15.68
2023-02-02T19:08:17.726Z,13.80
2023-02-02T19:10:42.178Z,16.55
2023-02-02T19:13:18.108Z,13.02
2023-02-02T19:15:44.307Z,15.80
2023-02-02T19:18:12.833Z,13.75
2023-02-02T19:20:37.299Z,14.80
2023-02-02T19:23:09.707Z,14.25
2023-02-02T19:25:34.266Z,14.20
2023-02-02T19:27:59.761Z,18.90
2023-02-02T19:30:25.572Z,14.57
2023-02-02T19:32:51.709Z,22.33
2023-02-02T19:35:22.129Z,14.30
2023-02-02T19:37:48.525Z,16.10
2023-02-02T19:40:21.884Z,16.45
2023-02-02T19:42:47.656Z,17.98
2023-02-02T19:45:21.932Z,17.95
2023-02-02T19:47:46.701Z,16.13
2023-02-02T19:50:17.165Z,18.20
2023-02-02T19:52:43.843Z,16.38
2023-02-02T19:55:21.780Z,17.65
2023-02-02T19:57:46.359Z,15.43
2023-02-02T20:00:20.461Z,19.30
2023-02-02T20:02:55.499Z,16.27
2023-02-02T20:05:23.644Z,17.95
2023-02-02T20:07:48.663Z,16.20
2023-02-02T20:10:21.546Z,13.63
2023-02-02T20:12:46.154Z,20.80
2023-02-02T20:15:30.100Z,18.33
2023-02-02T20:17:56.080Z,18.80
2023-02-02T20:20:28.292Z,16.17
2023-02-02T20:22:53.103Z,24.40
2023-02-02T20:25:17.923Z,17.25
2023-02-02T20:27:43.974Z,18.30
2023-02-02T20:30:21.098Z,16.45
2023-02-02T20:32:45.663Z,16.30
2023-02-02T20:35:27.012Z,15.82
2023-02-02T20:37:52.229Z,16.15
2023-02-02T20:40:25.908Z,17.42
2023-02-02T20:42:50.928Z,17.83
2023-02-02T20:45:17.286Z,17.00
2023-02-02T20:47:41.771Z,14.60
2023-02-02T20:50:06.975Z,18.75
2023-02-02T20:52:32.913Z,18.40
2023-02-02T20:54:57.326Z,17.05
2023-02-02T20:57:21.736Z,16.83
2023-02-02T20:59:46.158Z,17.23
2023-02-02T21:02:18.792Z,15.98
2023-02-02T21:04:46.701Z,16.52
2023-02-02T21:07:11.101Z,17.92
2023-02-02T21:09:37.069Z,18.63
2023-02-02T21:12:01.447Z,15.02
2023-02-02T21:14:25.981Z,18.08
2023-02-02T21:16:50.464Z,15.73
2023-02-02T21:19:14.935Z,14.18
2023-02-02T21:21:39.449Z,15.68
2023-02-02T21:24:04.353Z,17.17
2023-02-02T21:26:30.878Z,13.75
2023-02-02T21:28:55.632Z,13.77
2023-02-02T21:31:20.464Z,14.75
2023-02-02T21:33:45.212Z,12.48
2023-02-02T21:36:27.570Z,16.52
2023-02-02T21:38:52.565Z,13.25
2023-02-02T21:41:17.451Z,17.38
2023-02-02T21:43:43.743Z,14.15
2023-02-02T21:46:16.095Z,13.00
2023-02-02T21:48:42.077Z,18.65
2023-02-02T21:51:23.464Z,15.65
2023-02-02T21:53:47.922Z,15.23
2023-02-02T21:56:26.890Z,12.98
2023-02-02T21:58:52.854Z,12.20
2023-02-02T22:01:22.883Z,16.77
2023-02-02T22:03:49.675Z,17.35
2023-02-02T22:06:25.479Z,17.88
2023-02-02T22:08:50.729Z,17.05
2023-02-02T22:11:29.432Z,13.80
2023-02-02T22:13:55.797Z,15.32
2023-02-02T22:16:21.924Z,14.88
2023-02-02T22:18:46.491Z,15.15
2023-02-02T22:21:15.389Z,17.83
2023-02-02T22:23:40.781Z,16.55
2023-02-02T22:26:05.491Z,19.33
2023-02-02T22:28:34.185Z,15.20
2023-02-02T22:31:00.949Z,15.88
2023-02-02T22:33:26.765Z,14.65
2023-02-02T22:35:51.145Z,13.68
2023-02-02T22:38:18.665Z,14.38
2023-02-02T22:40:43.278Z,12.38
2023-02-02T22:43:08.682Z,17.45
2023-02-02T22:45:33.144Z,16.13
2023-02-02T22:47:59.059Z,14.63
2023-02-02T22:50:24.837Z,14.95
2023-02-02T22:52:49.777Z,14.77
2023-02-02T22:55:14.738Z,17.00
2023-02-02T22:57:39.572Z,18.55
2023-02-02T23:00:05.790Z,15.20
2023-02-02T23:02:30.349Z,15.38
2023-02-02T23:04:56.126Z,21.10
2023-02-02T23:07:20.610Z,15.50
2023-02-02T23:09:44.991Z,18.63
2023-02-02T23:12:09.890Z,14.77
2023-02-02T23:14:34.699Z,17.63
2023-02-02T23:16:59.077Z,15.00
2023-02-02T23:19:23.358Z,16.23
2023-02-02T23:21:49.150Z,17.27
2023-02-02T23:24:13.684Z,16.63
2023-02-02T23:26:38.070Z,13.57
2023-02-02T23:29:02.383Z,15.50
2023-02-02T23:31:26.915Z,13.60
2023-02-02T23:33:51.296Z,18.35
2023-02-02T23:36:15.810Z,15.27
2023-02-02T23:38:41.870Z,14.57
2023-02-02T23:41:07.237Z,16.42
2023-02-02T23:43:31.628Z,17.33
2023-02-02T23:45:56.319Z,23.05
2023-02-02T23:48:20.925Z,18.33
2023-02-02T23:50:46.904Z,16.45
2023-02-02T23:53:12.341Z,17.92
2023-02-02T23:55:38.671Z,15.65
2023-02-02T23:58:03.315Z,16.45
